Time;durP1;ratioP1;P1;durP2;ratioP2;P2;SDS_P1;SDS_P2;PMS_P1;PMS_P2;Temp;Humidity;BMP_temperature;BMP_pressure;BME280_temperature;BME280_humidity;BME280_pressure;Samples;Min_cycle;Max_cycle;Signal;HPM_P1;HPM_P2
2023/12/21 00:00:49;;;;;;;;;;;;;;;;;;5052898;28;20433;-70
2023/12/21 00:03:17;;;;;;;;;;;;;;;;;;5052370;28;19928;-70
2023/12/21 00:05:44;;;;;;;;;;;;;;;;;;5052436;28;19999;-70
2023/12/21 00:08:11;;;;;;;;;;;;;;;;;;5044992;28;19994;-70
2023/12/21 00:10:38;;;;;;;;;;;;;;;;;;5054644;28;19925;-69
2023/12/21 00:13:05;;;;;;;;;;;;;;;;;;5051408;28;20020;-69
2023/12/21 00:15:32;;;;;;;;;;;;;;;;;;5054254;28;19925;-69
2023/12/21 00:17:59;;;;;;;;;;;;;;;;;;5053743;28;19971;-68
2023/12/21 00:20:26;;;;;;;;;;;;;;;;;;5054151;28;19967;-69
2023/12/21 00:22:53;;;;;;;;;;;;;;;;;;5053677;28;20446;-69
2023/12/21 00:25:20;;;;;;;;;;;;;;;;;;5044638;28;19979;-69
2023/12/21 00:27:47;;;;;;;;;;;;;;;;;;5054768;28;20569;-69
2023/12/21 00:30:14;;;;;;;;;;;;;;;;;;5054436;28;19970;-68
2023/12/21 00:32:41;;;;;;;;;;;;;;;;;;5053992;28;20963;-69
2023/12/21 00:35:08;;;;;;;;;;;;;;;;;;5053735;28;19925;-69
2023/12/21 00:37:37;;;;;;;;;;;;;;;;;;5054663;28;20311;-69
2023/12/21 00:40:04;;;;;;;;;;;;;;;;;;5054047;28;19928;-69
2023/12/21 00:42:31;;;;;;;;;;;;;;;;;;5047467;28;19994;-69
2023/12/21 00:44:58;;;;;;;;;;;;;;;;;;5043008;28;19929;-69
2023/12/21 00:47:25;;;;;;;;;;;;;;;;;;5050470;28;19970;-69
2023/12/21 00:49:52;;;;;;;;;;;;;;;;;;5044476;28;19929;-69
2023/12/21 00:52:19;;;;;;;;;;;;;;;;;;5048529;28;21482;-70
2023/12/21 00:54:46;;;;;;;;;;;;;;;;;;5048310;28;19925;-70
2023/12/21 00:57:13;;;;;;;;;;;;;;;;;;5050050;28;19932;-70
2023/12/21 00:59:40;;;;;;;;;;;;;;;;;;5054031;28;19998;-70
2023/12/21 01:02:07;;;;;;;;;;;;;;;;;;5050814;28;19929;-70
2023/12/21 01:04:34;;;;;;;;;;;;;;;;;;5046130;28;19933;-70
2023/12/21 01:07:02;;;;;;;;;;;;;;;;;;5048491;28;19925;-70
2023/12/21 01:09:29;;;;;;;;;;;;;;;;;;5046560;28;20626;-70
2023/12/21 01:11:56;;;;;;;;;;;;;;;;;;5047772;28;19932;-70
2023/12/21 01:14:24;;;;;;;;;;;;;;;;;;5043693;28;20643;-70
2023/12/21 01:16:51;;;;;;;;;;;;;;;;;;5046123;28;20375;-70
2023/12/21 01:19:18;;;;;;;;;;;;;;;;;;5048403;28;19925;-70
2023/12/21 01:21:45;;;;;;;;;;;;;;;;;;5044272;28;19939;-69
2023/12/21 01:24:12;;;;;;;;;;;;;;;;;;5041514;28;19976;-70
2023/12/21 01:26:39;;;;;;;;;;;;;;;;;;5043483;28;19979;-70
2023/12/21 01:29:06;;;;;;;;;;;;;;;;;;5044601;28;19925;-70
2023/12/21 01:31:33;;;;;;;;;;;;;;;;;;5048609;28;19947;-70
2023/12/21 01:34:01;;;;;;;;;;;;;;;;;;5049641;28;19994;-70
2023/12/21 01:36:28;;;;;;;;;;;;;;;;;;5045550;28;19933;-70
2023/12/21 01:38:56;;;;;;;;;;;;;;;;;;5042074;28;20380;-70
2023/12/21 01:41:24;;;;;;;;;;;;;;;;;;5045013;28;20315;-69
2023/12/21 01:43:51;;;;;;;;;;;;;;;;;;5050443;28;19982;-70
2023/12/21 01:46:18;;;;;;;;;;;;;;;;;;5046659;28;19925;-70
2023/12/21 01:48:45;;;;;;;;;;;;;;;;;;5045650;28;19978;-70
2023/12/21 01:51:12;;;;;;;;;;;;;;;;;;5043463;28;20384;-70
2023/12/21 01:53:39;;;;;;;;;;;;;;;;;;5051807;28;19979;-70
2023/12/21 01:56:06;;;;;;;;;;;;;;;;;;5045636;28;19983;-70
2023/12/21 01:58:33;;;;;;;;;;;;;;;;;;5051373;28;20295;-70
2023/12/21 02:01:00;;;;;;;;;;;;;;;;;;5053033;28;19925;-69
2023/12/21 02:03:27;;;;;;;;;;;;;;;;;;5052454;28;19947;-70
2023/12/21 02:05:54;;;;;;;;;;;;;;;;;;5042979;28;20388;-70
2023/12/21 02:08:21;;;;;;;;;;;;;;;;;;5045922;28;19929;-70
2023/12/21 02:10:48;;;;;;;;;;;;;;;;;;5046366;28;19929;-69
2023/12/21 02:13:15;;;;;;;;;;;;;;;;;;5041489;28;19932;-69
2023/12/21 02:15:42;;;;;;;;;;;;;;;;;;5047627;28;19977;-70
2023/12/21 02:18:09;;;;;;;;;;;;;;;;;;5042516;28;19992;-70
2023/12/21 02:20:36;;;;;;;;;;;;;;;;;;5045141;28;19941;-69
2023/12/21 02:23:03;;;;;;;;;;;;;;;;;;5042801;28;19964;-70
2023/12/21 02:25:30;;;;;;;;;;;;;;;;;;5041000;28;19991;-69
2023/12/21 02:27:57;;;;;;;;;;;;;;;;;;5045207;28;19970;-70
2023/12/21 02:30:24;;;;;;;;;;;;;;;;;;5039548;28;19937;-70
2023/12/21 02:32:51;;;;;;;;;;;;;;;;;;5040520;28;20395;-70
2023/12/21 02:35:18;;;;;;;;;;;;;;;;;;5042106;28;19935;-71
2023/12/21 02:37:45;;;;;;;;;;;;;;;;;;5045545;28;20434;-70
2023/12/21 02:40:12;;;;;;;;;;;;;;;;;;5039509;28;19996;-70
2023/12/21 02:42:39;;;;;;;;;;;;;;;;;;5041092;28;19925;-70
2023/12/21 02:45:06;;;;;;;;;;;;;;;;;;5043490;28;19971;-71
2023/12/21 02:47:33;;;;;;;;;;;;;;;;;;5044453;28;19924;-71
2023/12/21 02:50:01;;;;;;;;;;;;;;;;;;5045475;28;19975;-71
2023/12/21 02:52:28;;;;;;;;;;;;;;;;;;5042879;28;19929;-71
2023/12/21 02:54:55;;;;;;;;;;;;;;;;;;5042050;28;20401;-71
2023/12/21 02:57:22;;;;;;;;;;;;;;;;;;5041597;28;19932;-71
2023/12/21 02:59:49;;;;;;;;;;;;;;;;;;5048867;28;19924;-71
2023/12/21 03:02:16;;;;;;;;;;;;;;;;;;5051586;28;20338;-71
2023/12/21 03:04:43;;;;;;;;;;;;;;;;;;5048162;28;19925;-71
2023/12/21 03:07:10;;;;;;;;;;;;;;;;;;5049492;28;19986;-70
2023/12/21 03:09:37;;;;;;;;;;;;;;;;;;5044810;28;20014;-70
2023/12/21 03:12:04;;;;;;;;;;;;;;;;;;5044586;28;20374;-70
2023/12/21 03:14:31;;;;;;;;;;;;;;;;;;5038366;28;19925;-70
2023/12/21 03:16:58;;;;;;;;;;;;;;;;;;5039129;28;19992;-70
2023/12/21 03:19:25;;;;;;;;;;;;;;;;;;5042884;28;19933;-72
2023/12/21 03:21:52;;;;;;;;;;;;;;;;;;5041718;28;19978;-69
2023/12/21 03:24:19;;;;;;;;;;;;;;;;;;5037400;28;19933;-70
2023/12/21 03:26:47;;;;;;;;;;;;;;;;;;5044752;28;19925;-69
2023/12/21 03:29:14;;;;;;;;;;;;;;;;;;5041254;28;20327;-69
2023/12/21 03:31:41;;;;;;;;;;;;;;;;;;5042447;28;19929;-70
2023/12/21 03:34:08;;;;;;;;;;;;;;;;;;5043521;28;19928;-69
2023/12/21 03:36:35;;;;;;;;;;;;;;;;;;5044571;28;20009;-69
2023/12/21 03:39:02;;;;;;;;;;;;;;;;;;5046921;28;19960;-69
2023/12/21 03:41:29;;;;;;;;;;;;;;;;;;5048875;28;20346;-70
2023/12/21 03:43:56;;;;;;;;;;;;;;;;;;5044016;28;19940;-70
2023/12/21 03:46:23;;;;;;;;;;;;;;;;;;5044327;28;19925;-70
2023/12/21 03:48:50;;;;;;;;;;;;;;;;;;5043510;28;19925;-70
2023/12/21 03:51:17;;;;;;;;;;;;;;;;;;5043831;28;19979;-70
2023/12/21 03:53:44;;;;;;;;;;;;;;;;;;5045113;28;19965;-71
2023/12/21 03:56:11;;;;;;;;;;;;;;;;;;5050896;28;20465;-70
2023/12/21 03:58:38;;;;;;;;;;;;;;;;;;5047833;28;19925;-70
2023/12/21 04:01:05;;;;;;;;;;;;;;;;;;5054391;28;20012;-70
2023/12/21 04:03:32;;;;;;;;;;;;;;;;;;5050002;28;20402;-70
2023/12/21 04:05:59;;;;;;;;;;;;;;;;;;5046228;28;19929;-69
2023/12/21 04:08:26;;;;;;;;;;;;;;;;;;5044212;28;19924;-69
2023/12/21 04:10:53;;;;;;;;;;;;;;;;;;5044156;28;19933;-69
2023/12/21 04:13:20;;;;;;;;;;;;;;;;;;5045319;28;19939;-69
2023/12/21 04:15:47;;;;;;;;;;;;;;;;;;5045051;28;20304;-69
2023/12/21 04:18:14;;;;;;;;;;;;;;;;;;5046406;28;19978;-69
2023/12/21 04:20:41;;;;;;;;;;;;;;;;;;5044380;28;20331;-69
2023/12/21 04:23:08;;;;;;;;;;;;;;;;;;5050856;28;19929;-69
2023/12/21 04:25:35;;;;;;;;;;;;;;;;;;5049603;28;19949;-69
2023/12/21 04:28:02;;;;;;;;;;;;;;;;;;5042199;28;19941;-69
2023/12/21 04:30:29;;;;;;;;;;;;;;;;;;5048124;28;19932;-70
2023/12/21 04:32:56;;;;;;;;;;;;;;;;;;5047050;28;20003;-69
2023/12/21 04:35:23;;;;;;;;;;;;;;;;;;5049644;28;20327;-69
2023/12/21 04:37:50;;;;;;;;;;;;;;;;;;5044279;28;19974;-70
2023/12/21 04:40:17;;;;;;;;;;;;;;;;;;5048028;28;19924;-69
2023/12/21 04:42:51;;;;;;;;;;;;;;;;;;5045062;28;19972;-69
2023/12/21 04:45:18;;;;;;;;;;;;;;;;;;5044550;28;19932;-70
2023/12/21 04:47:45;;;;;;;;;;;;;;;;;;5047239;28;21026;-69
2023/12/21 04:50:12;;;;;;;;;;;;;;;;;;5047938;28;19925;-70
2023/12/21 04:52:39;;;;;;;;;;;;;;;;;;5044626;28;19929;-69
2023/12/21 04:55:06;;;;;;;;;;;;;;;;;;5044236;28;19998;-69
2023/12/21 04:57:33;;;;;;;;;;;;;;;;;;5044382;28;19948;-69
2023/12/21 05:00:00;;;;;;;;;;;;;;;;;;5046607;28;20461;-69
2023/12/21 05:02:27;;;;;;;;;;;;;;;;;;5041655;28;19967;-70
2023/12/21 05:04:54;;;;;;;;;;;;;;;;;;5043802;28;20297;-71
2023/12/21 05:07:21;;;;;;;;;;;;;;;;;;5045942;28;20399;-69
2023/12/21 05:09:48;;;;;;;;;;;;;;;;;;5043292;28;19964;-69
2023/12/21 05:12:15;;;;;;;;;;;;;;;;;;5043679;28;19925;-69
2023/12/21 05:14:42;;;;;;;;;;;;;;;;;;5048061;28;19925;-69
2023/12/21 05:17:09;;;;;;;;;;;;;;;;;;5043187;28;20006;-69
2023/12/21 05:19:37;;;;;;;;;;;;;;;;;;5047866;28;20354;-69
2023/12/21 05:22:04;;;;;;;;;;;;;;;;;;5043597;28;20031;-69
2023/12/21 05:24:31;;;;;;;;;;;;;;;;;;5050675;28;19951;-70
2023/12/21 05:26:58;;;;;;;;;;;;;;;;;;5053239;28;19925;-70
2023/12/21 05:29:25;;;;;;;;;;;;;;;;;;5038470;28;20024;-70
2023/12/21 05:31:52;;;;;;;;;;;;;;;;;;5045757;28;20035;-70
2023/12/21 05:34:19;;;;;;;;;;;;;;;;;;5044868;28;20025;-70
2023/12/21 05:36:46;;;;;;;;;;;;;;;;;;5044686;28;20045;-70
2023/12/21 05:39:13;;;;;;;;;;;;;;;;;;5044210;28;20066;-70
2023/12/21 05:41:41;;;;;;;;;;;;;;;;;;5041424;28;20054;-70
2023/12/21 05:44:08;;;;;;;;;;;;;;;;;;5043400;28;19940;-70
2023/12/21 05:46:35;;;;;;;;;;;;;;;;;;5046340;28;19924;-70
2023/12/21 05:49:02;;;;;;;;;;;;;;;;;;5045857;28;20675;-71
2023/12/21 05:51:29;;;;;;;;;;;;;;;;;;5044352;28;19956;-71
2023/12/21 05:53:56;;;;;;;;;;;;;;;;;;5044672;28;19970;-70
2023/12/21 05:56:23;;;;;;;;;;;;;;;;;;5049623;28;19925;-68
2023/12/21 05:58:50;;;;;;;;;;;;;;;;;;5047317;28;19929;-69
2023/12/21 06:01:17;;;;;;;;;;;;;;;;;;5042652;28;19964;-69
2023/12/21 06:03:44;;;;;;;;;;;;;;;;;;5044493;28;20003;-69
2023/12/21 06:06:13;;;;;;;;;;;;;;;;;;5042219;28;19933;-69
2023/12/21 06:08:40;;;;;;;;;;;;;;;;;;5043354;28;19933;-69
2023/12/21 06:11:07;;;;;;;;;;;;;;;;;;5042166;28;20525;-69
2023/12/21 06:13:35;;;;;;;;;;;;;;;;;;5042555;28;19955;-69
2023/12/21 06:16:02;;;;;;;;;;;;;;;;;;5038799;28;19929;-69
2023/12/21 06:18:29;;;;;;;;;;;;;;;;;;5041593;28;19939;-69
2023/12/21 06:20:56;;;;;;;;;;;;;;;;;;5046353;28;20436;-69
2023/12/21 06:23:23;;;;;;;;;;;;;;;;;;5047319;28;20311;-68
2023/12/21 06:25:50;;;;;;;;;;;;;;;;;;5043611;28;19942;-70
2023/12/21 06:28:17;;;;;;;;;;;;;;;;;;5046874;28;20596;-70
2023/12/21 06:30:44;;;;;;;;;;;;;;;;;;5044739;28;19968;-69
2023/12/21 06:33:11;;;;;;;;;;;;;;;;;;5045569;28;19925;-69
2023/12/21 06:35:38;;;;;;;;;;;;;;;;;;5048037;28;19977;-69
2023/12/21 06:38:06;;;;;;;;;;;;;;;;;;5044773;28;20411;-69
2023/12/21 06:40:33;;;;;;;;;;;;;;;;;;5046324;28;20476;-69
2023/12/21 06:43:00;;;;;;;;;;;;;;;;;;5041388;28;20396;-69
2023/12/21 06:45:27;;;;;;;;;;;;;;;;;;5047711;28;20011;-70
2023/12/21 06:47:54;;;;;;;;;;;;;;;;;;5041006;28;19979;-70
2023/12/21 06:50:21;;;;;;;;;;;;;;;;;;5037271;28;19965;-70
2023/12/21 06:52:48;;;;;;;;;;;;;;;;;;5043842;28;20011;-70
2023/12/21 06:55:15;;;;;;;;;;;;;;;;;;5040447;28;20602;-69
2023/12/21 06:57:43;;;;;;;;;;;;;;;;;;5044645;28;19933;-69
2023/12/21 07:00:11;;;;;;;;;;;;;;;;;;5047718;28;19924;-69
2023/12/21 07:02:38;;;;;;;;;;;;;;;;;;5049595;28;20289;-69
2023/12/21 07:05:05;;;;;;;;;;;;;;;;;;5049339;28;19924;-70
2023/12/21 07:07:32;;;;;;;;;;;;;;;;;;5041914;28;19932;-71
2023/12/21 07:09:59;;;;;;;;;;;;;;;;;;5044893;28;20430;-69
2023/12/21 07:12:27;;;;;;;;;;;;;;;;;;5046107;28;19925;-70
2023/12/21 07:14:54;;;;;;;;;;;;;;;;;;5047543;28;20015;-70
2023/12/21 07:17:21;;;;;;;;;;;;;;;;;;5046721;28;20465;-69
2023/12/21 07:19:48;;;;;;;;;;;;;;;;;;5046529;28;19960;-69
2023/12/21 07:22:15;;;;;;;;;;;;;;;;;;5050496;28;19978;-69
2023/12/21 07:24:42;;;;;;;;;;;;;;;;;;5046589;28;20002;-67
2023/12/21 07:27:09;;;;;;;;;;;;;;;;;;5051011;28;19978;-68
2023/12/21 07:29:36;;;;;;;;;;;;;;;;;;5048497;28;19979;-69
2023/12/21 07:32:03;;;;;;;;;;;;;;;;;;5046127;28;20392;-68
2023/12/21 07:34:30;;;;;;;;;;;;;;;;;;5044278;28;19925;-68
2023/12/21 07:36:57;;;;;;;;;;;;;;;;;;5048910;28;19929;-67
2023/12/21 07:39:24;;;;;;;;;;;;;;;;;;5045227;28;20453;-68
2023/12/21 07:41:51;;;;;;;;;;;;;;;;;;5040436;28;19982;-68
2023/12/21 07:44:18;;;;;;;;;;;;;;;;;;5045434;28;19995;-68
2023/12/21 07:46:48;;;;;;;;;;;;;;;;;;5049881;28;19975;-67
2023/12/21 07:49:15;;;;;;;;;;;;;;;;;;5048404;28;19932;-69
2023/12/21 07:51:42;;;;;;;;;;;;;;;;;;5046951;28;19990;-69
2023/12/21 07:54:09;;;;;;;;;;;;;;;;;;5044890;28;19924;-69
2023/12/21 07:56:36;;;;;;;;;;;;;;;;;;5046754;28;19932;-69
2023/12/21 07:59:06;;;;;;;;;;;;;;;;;;5047803;28;19968;-69
2023/12/21 08:01:33;;;;;;;;;;;;;;;;;;5038703;28;20390;-69
2023/12/21 08:04:00;;;;;;;;;;;;;;;;;;5044036;28;19960;-69
2023/12/21 08:06:27;;;;;;;;;;;;;;;;;;5045411;28;19974;-69
2023/12/21 08:08:54;;;;;;;;;;;;;;;;;;5046517;28;20384;-70
2023/12/21 08:11:21;;;;;;;;;;;;;;;;;;5037443;28;19932;-69
2023/12/21 08:13:48;;;;;;;;;;;;;;;;;;5032158;28;19968;-69
2023/12/21 08:16:15;;;;;;;;;;;;;;;;;;5034489;28;20404;-69
2023/12/21 08:18:42;;;;;;;;;;;;;;;;;;5036813;28;19978;-69
2023/12/21 08:21:09;;;;;;;;;;;;;;;;;;5037750;28;19926;-70
2023/12/21 08:23:36;;;;;;;;;;;;;;;;;;5041476;28;20008;-69
2023/12/21 08:26:03;;;;;;;;;;;;;;;;;;5039221;28;19968;-68
2023/12/21 08:28:30;;;;;;;;;;;;;;;;;;5035781;28;19939;-68
2023/12/21 08:30:58;;;;;;;;;;;;;;;;;;5042180;28;20284;-67
2023/12/21 08:33:25;;;;;;;;;;;;;;;;;;5038010;28;19979;-69
2023/12/21 08:35:52;;;;;;;;;;;;;;;;;;5044651;28;19926;-69
2023/12/21 08:38:20;;;;;;;;;;;;;;;;;;5040797;28;19991;-70
2023/12/21 08:40:47;;;;;;;;;;;;;;;;;;5040976;28;19939;-67
2023/12/21 08:43:15;;;;;;;;;;;;;;;;;;5041258;28;20392;-68
2023/12/21 08:45:42;;;;;;;;;;;;;;;;;;5039287;28;19939;-68
2023/12/21 08:48:09;;;;;;;;;;;;;;;;;;5039012;28;19925;-68
2023/12/21 08:50:35;;;;;;;;;;;;;;;;;;5036594;28;20783;-68
2023/12/21 08:53:02;;;;;;;;;;;;;;;;;;5038569;28;19964;-68
2023/12/21 08:55:29;;;;;;;;;;;;;;;;;;5039231;28;19983;-68
2023/12/21 08:57:57;;;;;;;;;;;;;;;;;;5043889;28;19960;-67
2023/12/21 09:00:24;;;;;;;;;;;;;;;;;;5038207;28;19925;-68
2023/12/21 09:02:51;;;;;;;;;;;;;;;;;;5042982;28;19933;-69
2023/12/21 09:05:18;;;;;;;;;;;;;;;;;;5041192;28;20463;-69
2023/12/21 09:07:45;;;;;;;;;;;;;;;;;;5034401;28;19932;-69
2023/12/21 09:10:12;;;;;;;;;;;;;;;;;;5040318;28;19936;-67
2023/12/21 09:12:39;;;;;;;;;;;;;;;;;;5040141;28;19959;-73
2023/12/21 09:15:06;;;;;;;;;;;;;;;;;;5041805;28;19933;-72
2023/12/21 09:17:33;;;;;;;;;;;;;;;;;;5038481;28;19924;-69
2023/12/21 09:20:00;;;;;;;;;;;;;;;;;;5040535;28;19925;-69
2023/12/21 09:22:29;;;;;;;;;;;;;;;;;;5039686;28;19987;-69
2023/12/21 09:24:56;;;;;;;;;;;;;;;;;;5037770;28;20281;-69
2023/12/21 09:27:23;;;;;;;;;;;;;;;;;;5040034;28;19936;-69
2023/12/21 09:29:50;;;;;;;;;;;;;;;;;;5044336;28;20019;-69
2023/12/21 09:32:17;;;;;;;;;;;;;;;;;;5047169;28;19927;-70
2023/12/21 09:34:45;;;;;;;;;;;;;;;;;;5049605;28;19925;-70
2023/12/21 09:37:12;;;;;;;;;;;;;;;;;;5048927;28;20062;-67
2023/12/21 09:39:39;;;;;;;;;;;;;;;;;;5048370;28;19925;-67
2023/12/21 09:42:06;;;;;;;;;;;;;;;;;;5039467;28;20537;-67
2023/12/21 09:44:33;;;;;;;;;;;;;;;;;;5047321;28;19979;-67
2023/12/21 09:47:00;;;;;;;;;;;;;;;;;;5040149;28;19925;-67
2023/12/21 09:49:28;;;;;;;;;;;;;;;;;;5040701;28;19925;-68
2023/12/21 09:51:55;;;;;;;;;;;;;;;;;;5050045;28;20012;-67
2023/12/21 09:54:22;;;;;;;;;;;;;;;;;;5048529;28;19929;-67
2023/12/21 09:56:50;;;;;;;;;;;;;;;;;;5041435;28;20004;-68
2023/12/21 09:59:17;;;;;;;;;;;;;;;;;;5036538;28;19925;-67
2023/12/21 10:01:44;;;;;;;;;;;;;;;;;;5034694;28;19925;-67
2023/12/21 10:04:11;;;;;;;;;;;;;;;;;;5041059;28;19925;-69
2023/12/21 10:06:38;;;;;;;;;;;;;;;;;;5039497;28;20408;-68
2023/12/21 10:09:05;;;;;;;;;;;;;;;;;;5044081;28;19933;-69
2023/12/21 10:11:32;;;;;;;;;;;;;;;;;;5048376;28;19931;-69
2023/12/21 10:14:01;;;;;;;;;;;;;;;;;;5042473;28;20427;-69
2023/12/21 10:16:28;;;;;;;;;;;;;;;;;;5039361;28;20013;-71
2023/12/21 10:18:55;;;;;;;;;;;;;;;;;;5039656;28;19964;-71
2023/12/21 10:21:22;;;;;;;;;;;;;;;;;;5045528;28;20379;-71
2023/12/21 10:23:49;;;;;;;;;;;;;;;;;;5040838;28;19970;-70
2023/12/21 10:26:16;;;;;;;;;;;;;;;;;;5039997;28;20311;-70
2023/12/21 10:28:43;;;;;;;;;;;;;;;;;;5040911;28;19990;-67
2023/12/21 10:31:10;;;;;;;;;;;;;;;;;;5041468;28;19956;-70
2023/12/21 10:33:36;;;;;;;;;;;;;;;;;;5043411;28;20457;-69
2023/12/21 10:36:04;;;;;;;;;;;;;;;;;;5040919;28;19925;-69
2023/12/21 10:38:31;;;;;;;;;;;;;;;;;;5044175;28;19988;-70
2023/12/21 10:41:05;;;;;;;;;;;;;;;;;;5046903;28;19952;-69
2023/12/21 10:43:32;;;;;;;;;;;;;;;;;;5042148;28;19985;-70
2023/12/21 10:45:59;;;;;;;;;;;;;;;;;;5034948;28;19979;-70
2023/12/21 10:48:26;;;;;;;;;;;;;;;;;;5037893;28;19933;-69
2023/12/21 10:50:53;;;;;;;;;;;;;;;;;;5043608;28;19925;-69
2023/12/21 10:53:21;;;;;;;;;;;;;;;;;;5042001;28;20353;-69
2023/12/21 10:55:48;;;;;;;;;;;;;;;;;;5043200;28;20023;-72
2023/12/21 10:58:15;;;;;;;;;;;;;;;;;;5041214;28;19967;-72
2023/12/21 11:00:42;;;;;;;;;;;;;;;;;;5043204;28;19924;-73
2023/12/21 11:03:09;;;;;;;;;;;;;;;;;;5043650;28;20066;-73
2023/12/21 11:05:36;;;;;;;;;;;;;;;;;;5042438;28;19963;-72
2023/12/21 11:08:04;;;;;;;;;;;;;;;;;;5039703;28;20592;-72
2023/12/21 11:10:31;;;;;;;;;;;;;;;;;;5046358;28;19925;-72
2023/12/21 11:12:59;;;;;;;;;;;;;;;;;;5043372;28;20284;-73
2023/12/21 11:15:25;;;;;;;;;;;;;;;;;;5040903;28;19929;-73
2023/12/21 11:17:52;;;;;;;;;;;;;;;;;;5040403;28;20402;-73
2023/12/21 11:20:19;;;;;;;;;;;;;;;;;;5045160;28;19956;-69
2023/12/21 11:22:47;;;;;;;;;;;;;;;;;;5038992;28;20336;-70
2023/12/21 11:25:14;;;;;;;;;;;;;;;;;;5041474;28;19925;-69
2023/12/21 11:27:41;;;;;;;;;;;;;;;;;;5040751;28;20007;-70
2023/12/21 11:30:10;;;;;;;;;;;;;;;;;;5043125;28;20464;-70
2023/12/21 11:32:37;;;;;;;;;;;;;;;;;;5042078;28;20392;-69
2023/12/21 11:35:04;;;;;;;;;;;;;;;;;;5040636;28;19992;-69
2023/12/21 11:37:31;;;;;;;;;;;;;;;;;;5042687;28;19929;-69
2023/12/21 11:39:59;;;;;;;;;;;;;;;;;;5043883;28;19929;-70
2023/12/21 11:42:25;;;;;;;;;;;;;;;;;;5043078;28;20090;-70
2023/12/21 11:44:55;;;;;;;;;;;;;;;;;;5037247;28;20292;-70
2023/12/21 11:47:22;;;;;;;;;;;;;;;;;;5042900;28;19925;-71
2023/12/21 11:49:49;;;;;;;;;;;;;;;;;;5040253;28;20018;-69
2023/12/21 11:52:16;;;;;;;;;;;;;;;;;;5038576;28;19925;-69
2023/12/21 11:54:47;;;;;;;;;;;;;;;;;;5043407;28;20457;-69
2023/12/21 11:57:15;;;;;;;;;;;;;;;;;;5038970;28;20012;-69
2023/12/21 11:59:46;;;;;;;;;;;;;;;;;;5043140;28;19931;-68
2023/12/21 12:02:13;;;;;;;;;;;;;;;;;;5041566;28;20383;-69
2023/12/21 12:04:40;;;;;;;;;;;;;;;;;;5041819;28;19937;-69
2023/12/21 12:07:07;;;;;;;;;;;;;;;;;;5044311;28;20383;-69
2023/12/21 12:09:34;;;;;;;;;;;;;;;;;;5040499;28;19998;-69
2023/12/21 12:12:01;;;;;;;;;;;;;;;;;;5042689;28;19933;-69
2023/12/21 12:14:28;;;;;;;;;;;;;;;;;;5041412;28;20028;-69
2023/12/21 12:16:55;;;;;;;;;;;;;;;;;;5061243;22;19929;-69
2023/12/21 12:19:22;;;;;;;;;;;;;;;;;;5064777;28;19924;-68
2023/12/21 12:21:49;;;;;;;;;;;;;;;;;;5064082;28;19973;-68
2023/12/21 12:24:17;;;;;;;;;;;;;;;;;;5062542;28;20302;-68
2023/12/21 12:26:44;;;;;;;;;;;;;;;;;;5049442;28;20446;-69
2023/12/21 12:29:11;;;;;;;;;;;;;;;;;;5051054;28;19928;-68
2023/12/21 12:31:38;;;;;;;;;;;;;;;;;;5041358;28;19925;-70
2023/12/21 12:34:05;;;;;;;;;;;;;;;;;;5046973;28;19968;-70
2023/12/21 12:36:32;;;;;;;;;;;;;;;;;;5042362;28;19925;-69
2023/12/21 12:38:59;;;;;;;;;;;;;;;;;;5037203;28;19925;-69
2023/12/21 12:41:26;;;;;;;;;;;;;;;;;;5045910;28;19971;-70
2023/12/21 12:43:55;;;;;;;;;;;;;;;;;;5035475;28;19929;-70
2023/12/21 12:46:24;;;;;;;;;;;;;;;;;;5040691;28;19933;-69
2023/12/21 12:48:51;;;;;;;;;;;;;;;;;;5047104;28;19933;-70
2023/12/21 12:51:18;;;;;;;;;;;;;;;;;;5036344;28;20391;-70
2023/12/21 12:53:45;;;;;;;;;;;;;;;;;;5034119;28;19983;-69
2023/12/21 12:56:12;;;;;;;;;;;;;;;;;;5050984;28;20027;-69
2023/12/21 12:58:40;;;;;;;;;;;;;;;;;;5043003;28;19925;-69
2023/12/21 13:01:07;;;;;;;;;;;;;;;;;;5039556;28;19960;-69
2023/12/21 13:03:35;;;;;;;;;;;;;;;;;;5039454;28;19937;-69
2023/12/21 13:06:02;;;;;;;;;;;;;;;;;;5042160;28;20319;-69
2023/12/21 13:08:29;;;;;;;;;;;;;;;;;;5040686;28;19937;-69
2023/12/21 13:10:56;;;;;;;;;;;;;;;;;;5038113;28;20403;-69
2023/12/21 13:13:23;;;;;;;;;;;;;;;;;;5039314;28;19929;-71
2023/12/21 13:15:51;;;;;;;;;;;;;;;;;;5041388;28;19975;-69
2023/12/21 13:18:17;;;;;;;;;;;;;;;;;;5032494;28;19983;-69
2023/12/21 13:20:44;;;;;;;;;;;;;;;;;;5030291;28;20329;-69
2023/12/21 13:23:13;;;;;;;;;;;;;;;;;;5033596;28;19924;-72
2023/12/21 13:25:40;;;;;;;;;;;;;;;;;;5038656;28;20387;-73
2023/12/21 13:28:08;;;;;;;;;;;;;;;;;;5041631;28;19936;-71
2023/12/21 13:30:35;;;;;;;;;;;;;;;;;;5036279;28;20028;-72
2023/12/21 13:33:02;;;;;;;;;;;;;;;;;;5037881;28;19925;-71
2023/12/21 13:35:29;;;;;;;;;;;;;;;;;;5035275;28;19954;-71
2023/12/21 13:37:56;;;;;;;;;;;;;;;;;;5035241;28;19947;-72
2023/12/21 13:40:27;;;;;;;;;;;;;;;;;;5034062;28;20269;-73
2023/12/21 13:42:55;;;;;;;;;;;;;;;;;;5040191;28;19925;-72
2023/12/21 13:45:22;;;;;;;;;;;;;;;;;;5042551;28;20373;-73
2023/12/21 13:47:49;;;;;;;;;;;;;;;;;;5040202;28;19982;-75
2023/12/21 13:50:16;;;;;;;;;;;;;;;;;;5034345;28;20375;-74
2023/12/21 13:52:43;;;;;;;;;;;;;;;;;;5043279;28;19999;-74
2023/12/21 13:55:10;;;;;;;;;;;;;;;;;;5032487;28;20283;-73
2023/12/21 13:57:37;;;;;;;;;;;;;;;;;;5031756;28;19928;-73
2023/12/21 14:00:04;;;;;;;;;;;;;;;;;;5033557;28;19975;-74
2023/12/21 14:02:31;;;;;;;;;;;;;;;;;;5038264;28;19940;-72
2023/12/21 14:04:58;;;;;;;;;;;;;;;;;;5039586;28;19931;-74
2023/12/21 14:07:26;;;;;;;;;;;;;;;;;;5033894;28;19965;-74
2023/12/21 14:09:53;;;;;;;;;;;;;;;;;;5032290;28;19932;-74
2023/12/21 14:12:20;;;;;;;;;;;;;;;;;;5031715;28;19956;-77
2023/12/21 14:14:51;;;;;;;;;;;;;;;;;;5028347;28;21427;-75
2023/12/21 14:17:18;;;;;;;;;;;;;;;;;;5032381;28;20023;-75
2023/12/21 14:19:45;;;;;;;;;;;;;;;;;;5031023;28;19929;-74
2023/12/21 14:22:12;;;;;;;;;;;;;;;;;;5032449;28;19994;-74
2023/12/21 14:24:39;;;;;;;;;;;;;;;;;;5032051;28;20024;-75
2023/12/21 14:27:06;;;;;;;;;;;;;;;;;;5028698;28;19929;-71
2023/12/21 14:29:33;;;;;;;;;;;;;;;;;;5031346;28;19929;-73
2023/12/21 14:32:00;;;;;;;;;;;;;;;;;;5032872;28;20284;-73
2023/12/21 14:34:27;;;;;;;;;;;;;;;;;;5031563;28;19979;-73
2023/12/21 14:36:54;;;;;;;;;;;;;;;;;;5029291;28;19980;-79
2023/12/21 14:39:21;;;;;;;;;;;;;;;;;;5032805;28;19979;-73
2023/12/21 14:41:48;;;;;;;;;;;;;;;;;;5044080;28;19990;-73
2023/12/21 14:44:15;;;;;;;;;;;;;;;;;;5037611;28;19929;-73
2023/12/21 14:46:42;;;;;;;;;;;;;;;;;;5035649;28;20388;-71
2023/12/21 14:49:09;;;;;;;;;;;;;;;;;;5037706;28;20410;-73
2023/12/21 14:51:36;;;;;;;;;;;;;;;;;;5035368;28;19933;-73
2023/12/21 14:54:03;;;;;;;;;;;;;;;;;;5038630;28;20334;-73
2023/12/21 14:56:30;;;;;;;;;;;;;;;;;;5035003;28;19972;-71
2023/12/21 14:58:57;;;;;;;;;;;;;;;;;;5037643;28;20410;-70
2023/12/21 15:01:25;;;;;;;;;;;;;;;;;;5034151;28;19933;-71
2023/12/21 15:03:52;;;;;;;;;;;;;;;;;;5035884;28;20424;-70
2023/12/21 15:06:19;;;;;;;;;;;;;;;;;;5031130;28;19924;-70
2023/12/21 15:08:46;;;;;;;;;;;;;;;;;;5029994;28;19929;-72
2023/12/21 15:11:13;;;;;;;;;;;;;;;;;;5036054;28;19952;-71
2023/12/21 15:13:41;;;;;;;;;;;;;;;;;;5031323;28;20032;-69
2023/12/21 15:16:09;;;;;;;;;;;;;;;;;;5031989;28;20044;-69
2023/12/21 15:18:36;;;;;;;;;;;;;;;;;;5042486;28;19960;-69
2023/12/21 15:21:03;;;;;;;;;;;;;;;;;;5042385;28;19931;-70
2023/12/21 15:23:30;;;;;;;;;;;;;;;;;;5052068;22;19933;-70
2023/12/21 15:25:57;;;;;;;;;;;;;;;;;;5055733;28;19932;-68
2023/12/21 15:28:24;;;;;;;;;;;;;;;;;;5053319;28;22201;-71
2023/12/21 15:30:51;;;;;;;;;;;;;;;;;;5061588;28;19979;-74
2023/12/21 15:33:18;;;;;;;;;;;;;;;;;;5062352;28;20037;-68
2023/12/21 15:35:45;;;;;;;;;;;;;;;;;;5058823;28;19932;-69
2023/12/21 15:38:12;;;;;;;;;;;;;;;;;;5058696;28;19956;-68
2023/12/21 15:40:40;;;;;;;;;;;;;;;;;;5063484;28;19925;-69
2023/12/21 15:43:07;;;;;;;;;;;;;;;;;;5061806;28;20468;-69
2023/12/21 15:45:34;;;;;;;;;;;;;;;;;;5058113;28;19963;-70
2023/12/21 15:48:01;;;;;;;;;;;;;;;;;;5066337;28;20154;-70
2023/12/21 15:50:29;;;;;;;;;;;;;;;;;;5062634;28;20452;-69
2023/12/21 15:52:56;;;;;;;;;;;;;;;;;;5060597;28;19928;-69
2023/12/21 15:55:24;;;;;;;;;;;;;;;;;;5062227;28;20608;-70
2023/12/21 15:57:51;;;;;;;;;;;;;;;;;;5062596;28;19929;-69
2023/12/21 16:00:21;;;;;;;;;;;;;;;;;;5061838;28;20373;-70
2023/12/21 16:02:49;;;;;;;;;;;;;;;;;;5065839;28;19924;-71
2023/12/21 16:05:16;;;;;;;;;;;;;;;;;;5063115;28;19931;-70
2023/12/21 16:07:44;;;;;;;;;;;;;;;;;;5069709;28;19933;-68
2023/12/21 16:10:11;;;;;;;;;;;;;;;;;;5058129;28;20399;-69
2023/12/21 16:12:41;;;;;;;;;;;;;;;;;;5062680;28;20013;-70
2023/12/21 16:15:08;;;;;;;;;;;;;;;;;;5064398;28;19924;-70
2023/12/21 16:17:36;;;;;;;;;;;;;;;;;;5064029;28;19925;-70
2023/12/21 16:20:04;;;;;;;;;;;;;;;;;;5063094;28;19933;-69
2023/12/21 16:22:32;;;;;;;;;;;;;;;;;;5070669;28;20251;-70
2023/12/21 16:24:59;;;;;;;;;;;;;;;;;;5060859;28;20004;-70
2023/12/21 16:27:26;;;;;;;;;;;;;;;;;;5066188;28;19970;-70
2023/12/21 16:29:53;;;;;;;;;;;;;;;;;;5067501;28;19955;-70
2023/12/21 16:32:20;;;;;;;;;;;;;;;;;;5057684;28;19982;-69
2023/12/21 16:34:47;;;;;;;;;;;;;;;;;;5066253;28;19964;-70
2023/12/21 16:37:14;;;;;;;;;;;;;;;;;;5059865;28;19976;-70
2023/12/21 16:39:42;;;;;;;;;;;;;;;;;;5066430;28;19925;-70
2023/12/21 16:42:09;;;;;;;;;;;;;;;;;;5062901;28;19932;-70
2023/12/21 16:44:36;;;;;;;;;;;;;;;;;;5057721;28;22082;-70